createdAt,value
2017-10-15T00:00:25.975Z,14.30
2017-10-15T00:00:58.502Z,14.50
2017-10-15T00:01:31.791Z,15.50
2017-10-15T00:02:04.318Z,13.57
2017-10-15T00:02:36.842Z,16.87
2017-10-15T00:03:09.401Z,15.02
2017-10-15T00:03:41.936Z,14.32
2017-10-15T00:04:15.249Z,14.87
2017-10-15T00:04:47.784Z,15.35
2017-10-15T00:05:20.315Z,17.70
2017-10-15T00:05:52.843Z,20.05
2017-10-15T00:06:25.383Z,20.62
2017-10-15T00:06:58.679Z,16.10
2017-10-15T00:07:31.202Z,15.07
2017-10-15T00:08:03.739Z,17.25
2017-10-15T00:08:36.275Z,16.17
2017-10-15T00:09:08.821Z,18.58
2017-10-15T00:09:42.111Z,17.17
2017-10-15T00:10:14.648Z,17.00
2017-10-15T00:10:47.957Z,18.58
2017-10-15T00:11:20.492Z,18.83
2017-10-15T00:11:53.013Z,19.42
2017-10-15T00:12:26.327Z,17.35
2017-10-15T00:12:58.858Z,16.37
2017-10-15T00:13:31.389Z,16.77
2017-10-15T00:14:03.934Z,16.80
2017-10-15T00:14:36.472Z,15.65
2017-10-15T00:15:09.011Z,14.18
2017-10-15T00:15:41.542Z,17.30
2017-10-15T00:16:14.059Z,16.58
2017-10-15T00:16:46.601Z,19.83
2017-10-15T00:17:19.134Z,22.73
2017-10-15T00:17:51.663Z,20.85
2017-10-15T00:18:24.184Z,17.33
2017-10-15T00:18:56.718Z,17.92
2017-10-15T00:19:29.518Z,17.95
2017-10-15T00:20:02.049Z,23.38
2017-10-15T00:20:34.583Z,17.83
2017-10-15T00:21:07.120Z,19.37
2017-10-15T00:21:39.658Z,18.52
2017-10-15T00:22:12.200Z,17.30
2017-10-15T00:22:45.487Z,19.27
2017-10-15T00:23:18.029Z,17.62
2017-10-15T00:23:50.578Z,18.23
2017-10-15T00:24:23.122Z,17.52
2017-10-15T00:24:55.656Z,21.75
2017-10-15T00:25:28.194Z,17.45
2017-10-15T00:26:01.524Z,18.30
2017-10-15T00:26:34.158Z,22.08
2017-10-15T00:27:06.688Z,19.77
2017-10-15T00:27:39.295Z,18.77
2017-10-15T00:28:11.835Z,19.33
2017-10-15T00:28:44.376Z,21.25
2017-10-15T00:29:16.924Z,22.58
2017-10-15T00:29:49.457Z,20.75
2017-10-15T00:30:22.003Z,19.92
2017-10-15T00:30:54.533Z,18.85
2017-10-15T00:31:27.078Z,18.62
2017-10-15T00:31:59.602Z,20.80
2017-10-15T00:32:32.142Z,18.42
2017-10-15T00:33:04.670Z,17.98
2017-10-15T00:33:37.191Z,19.08
2017-10-15T00:34:09.730Z,22.00
2017-10-15T00:34:42.278Z,17.92
2017-10-15T00:35:14.821Z,23.35
2017-10-15T00:35:47.382Z,22.55
2017-10-15T00:36:19.904Z,19.80
2017-10-15T00:36:52.443Z,17.62
2017-10-15T00:37:25.767Z,20.77
2017-10-15T00:37:58.308Z,21.50
2017-10-15T00:38:30.840Z,23.12
2017-10-15T00:39:03.373Z,16.92
2017-10-15T00:39:35.899Z,18.80
2017-10-15T00:40:09.388Z,20.83
2017-10-15T00:40:41.931Z,19.30
2017-10-15T00:41:14.489Z,17.52
2017-10-15T00:41:47.017Z,19.37
2017-10-15T00:42:19.540Z,17.35
2017-10-15T00:42:52.071Z,17.77
2017-10-15T00:43:25.388Z,17.42
2017-10-15T00:43:57.967Z,18.58
2017-10-15T00:44:30.503Z,20.33
2017-10-15T00:45:03.052Z,19.92
2017-10-15T00:45:35.606Z,24.40
2017-10-15T00:46:08.942Z,33.17
2017-10-15T00:46:41.573Z,25.90
2017-10-15T00:47:14.888Z,24.90
2017-10-15T00:47:47.444Z,21.75
2017-10-15T00:48:19.989Z,19.80
2017-10-15T00:48:52.540Z,18.62
2017-10-15T00:49:25.870Z,18.50
2017-10-15T00:49:58.401Z,18.48
2017-10-15T00:50:30.955Z,21.92
2017-10-15T00:51:03.483Z,18.67
2017-10-15T00:51:36.838Z,19.12
2017-10-15T00:52:09.390Z,17.52
2017-10-15T00:52:41.928Z,19.90
2017-10-15T00:53:14.461Z,18.45
2017-10-15T00:53:46.998Z,18.42
2017-10-15T00:54:19.518Z,19.27
2017-10-15T00:54:52.057Z,19.15
2017-10-15T00:55:24.600Z,22.62
2017-10-15T00:55:57.901Z,18.45
2017-10-15T00:56:31.203Z,19.80
2017-10-15T00:57:04.507Z,21.48
2017-10-15T00:57:37.051Z,21.42
2017-10-15T00:58:09.594Z,24.02
2017-10-15T00:58:42.913Z,19.10
2017-10-15T00:59:15.439Z,17.87
2017-10-15T00:59:47.958Z,18.05
2017-10-15T01:00:20.480Z,19.27
2017-10-15T01:00:53.029Z,24.17
2017-10-15T01:01:25.557Z,19.77
2017-10-15T01:01:58.108Z,20.10
2017-10-15T01:02:30.649Z,19.33
2017-10-15T01:03:03.214Z,19.60
2017-10-15T01:03:35.748Z,20.75
2017-10-15T01:04:08.313Z,17.92
2017-10-15T01:04:42.477Z,17.62
2017-10-15T01:05:15.043Z,18.33
2017-10-15T01:05:47.568Z,18.92
2017-10-15T01:06:20.107Z,20.25
2017-10-15T01:06:52.648Z,18.80
2017-10-15T01:07:25.193Z,18.98
2017-10-15T01:07:57.745Z,19.23
2017-10-15T01:08:30.298Z,20.90
2017-10-15T01:09:02.825Z,18.83
2017-10-15T01:09:36.116Z,18.27
2017-10-15T01:10:09.420Z,17.70
2017-10-15T01:10:41.949Z,20.23
2017-10-15T01:11:14.481Z,19.02
2017-10-15T01:11:47.755Z,18.45
2017-10-15T01:12:20.294Z,19.40
2017-10-15T01:12:52.824Z,18.67
2017-10-15T01:13:25.346Z,28.12
2017-10-15T01:13:57.887Z,21.02
2017-10-15T01:14:30.423Z,19.40
2017-10-15T01:15:02.960Z,18.90
2017-10-15T01:15:35.521Z,22.42
2017-10-15T01:16:08.076Z,21.77
2017-10-15T01:16:40.608Z,19.30
2017-10-15T01:17:13.142Z,20.23
2017-10-15T01:17:46.438Z,31.08
2017-10-15T01:18:18.970Z,24.23
2017-10-15T01:18:51.501Z,19.25
2017-10-15T01:19:24.059Z,22.83
2017-10-15T01:19:56.594Z,21.25
2017-10-15T01:20:29.154Z,20.48
2017-10-15T01:21:01.703Z,21.60
2017-10-15T01:21:34.998Z,20.42
2017-10-15T01:22:07.543Z,17.20
2017-10-15T01:22:40.094Z,20.20
2017-10-15T01:23:12.634Z,19.45
2017-10-15T01:23:45.221Z,21.70
2017-10-15T01:24:17.776Z,19.70
2017-10-15T01:24:50.333Z,18.67
2017-10-15T01:25:22.871Z,18.10
2017-10-15T01:25:55.394Z,20.92
2017-10-15T01:26:28.688Z,19.20
2017-10-15T01:27:01.248Z,20.12
2017-10-15T01:27:33.803Z,19.52
2017-10-15T01:28:06.338Z,23.05
2017-10-15T01:28:38.869Z,19.62
2017-10-15T01:29:11.397Z,18.92
2017-10-15T01:29:43.920Z,17.98
2017-10-15T01:30:16.473Z,19.42
2017-10-15T01:30:49.020Z,18.37
2017-10-15T01:31:21.561Z,20.60
2017-10-15T01:31:54.079Z,20.45
2017-10-15T01:32:26.614Z,17.95
2017-10-15T01:32:59.138Z,20.95
2017-10-15T01:33:31.659Z,19.70
2017-10-15T01:34:04.190Z,21.15
2017-10-15T01:34:36.711Z,19.70
2017-10-15T01:35:10.000Z,19.17
2017-10-15T01:35:42.537Z,17.55
2017-10-15T01:36:15.060Z,18.27
2017-10-15T01:36:47.581Z,19.40
2017-10-15T01:37:20.884Z,20.83
2017-10-15T01:37:53.420Z,16.40
2017-10-15T01:38:25.979Z,20.80
2017-10-15T01:38:58.511Z,20.88
2017-10-15T01:39:31.044Z,17.83
2017-10-15T01:40:03.573Z,17.98
2017-10-15T01:40:36.119Z,18.00
2017-10-15T01:41:08.681Z,18.12
2017-10-15T01:41:41.209Z,16.95
2017-10-15T01:42:13.760Z,23.02
2017-10-15T01:42:46.301Z,18.33
2017-10-15T01:43:18.852Z,19.23
2017-10-15T01:43:51.375Z,20.80
2017-10-15T01:44:23.927Z,20.98
2017-10-15T01:44:56.478Z,18.12
2017-10-15T01:45:29.012Z,17.70
2017-10-15T01:46:01.538Z,18.65
2017-10-15T01:46:34.078Z,23.67
2017-10-15T01:47:06.639Z,18.10
2017-10-15T01:47:39.175Z,21.40
2017-10-15T01:48:12.489Z,25.65
2017-10-15T01:48:45.038Z,20.00
2017-10-15T01:49:17.558Z,24.30
2017-10-15T01:49:50.088Z,20.42
2017-10-15T01:50:22.621Z,19.62
2017-10-15T01:50:55.147Z,19.12
2017-10-15T01:51:27.678Z,20.23
2017-10-15T01:52:00.225Z,18.00
2017-10-15T01:52:32.752Z,19.08
2017-10-15T01:53:05.285Z,20.33
2017-10-15T01:53:37.827Z,20.92
2017-10-15T01:54:10.349Z,19.25
2017-10-15T01:54:42.865Z,19.55
2017-10-15T01:55:15.394Z,17.20
2017-10-15T01:55:47.942Z,17.58
2017-10-15T01:56:21.255Z,18.67
2017-10-15T01:56:53.812Z,22.05
2017-10-15T01:57:26.355Z,16.10
2017-10-15T01:57:59.655Z,19.42
2017-10-15T01:58:32.185Z,20.15
2017-10-15T01:59:04.708Z,20.83
2017-10-15T01:59:37.249Z,17.27
2017-10-15T02:00:09.780Z,17.73
2017-10-15T02:00:42.308Z,21.08
2017-10-15T02:01:14.875Z,21.15
2017-10-15T02:01:47.407Z,19.33
2017-10-15T02:02:19.968Z,18.58
2017-10-15T02:02:52.523Z,18.70
2017-10-15T02:03:25.077Z,20.50
2017-10-15T02:03:58.373Z,18.90
2017-10-15T02:04:30.903Z,17.87
2017-10-15T02:05:03.440Z,17.52
2017-10-15T02:05:35.966Z,18.30
2017-10-15T02:06:08.504Z,19.67
2017-10-15T02:06:41.799Z,22.25
2017-10-15T02:07:14.344Z,20.42
2017-10-15T02:07:46.867Z,21.65
2017-10-15T02:08:19.412Z,18.33
2017-10-15T02:08:52.845Z,17.52
2017-10-15T02:09:25.461Z,17.73
2017-10-15T02:09:58.000Z,19.85
2017-10-15T02:10:31.570Z,18.17
2017-10-15T02:11:04.156Z,20.12
2017-10-15T02:11:37.321Z,18.83
2017-10-15T02:12:09.838Z,20.95
2017-10-15T02:12:42.371Z,19.10
2017-10-15T02:13:14.981Z,18.92
2017-10-15T02:13:48.070Z,17.67
2017-10-15T02:14:20.923Z,18.12
2017-10-15T02:24:34.225Z,17.52
2017-10-15T02:25:06.752Z,19.20
2017-10-15T02:25:43.164Z,18.15
2017-10-15T02:26:15.979Z,18.30
2017-10-15T02:27:27.833Z,20.58
2017-10-15T02:28:00.905Z,18.92
2017-10-15T02:28:33.458Z,20.90
2017-10-15T02:29:06.764Z,19.75
2017-10-15T02:29:39.324Z,21.85
2017-10-15T02:30:15.110Z,18.87
2017-10-15T02:30:47.966Z,19.17
2017-10-15T02:32:01.739Z,21.73
2017-10-15T02:32:39.488Z,18.25
2017-10-15T02:42:52.067Z,19.08
2017-10-15T02:43:24.604Z,22.17
2017-10-15T02:43:57.169Z,19.85
2017-10-15T02:44:29.748Z,19.23
2017-10-15T02:45:02.293Z,17.98
2017-10-15T02:45:34.825Z,18.35
2017-10-15T02:46:07.359Z,16.80
2017-10-15T02:46:39.888Z,21.33
2017-10-15T02:47:12.408Z,21.35
2017-10-15T02:47:44.939Z,18.95
2017-10-15T02:48:17.537Z,20.42
2017-10-15T02:48:50.064Z,20.42
2017-10-15T02:49:22.627Z,19.92
2017-10-15T02:49:55.160Z,18.52
2017-10-15T02:50:27.703Z,21.15
2017-10-15T02:51:00.254Z,19.02
2017-10-15T02:51:33.567Z,17.35
2017-10-15T02:52:06.099Z,17.30
2017-10-15T02:52:38.623Z,18.17
2017-10-15T02:53:11.155Z,17.30
2017-10-15T02:53:43.714Z,18.05
2017-10-15T02:54:16.251Z,18.35
2017-10-15T02:54:49.546Z,17.30
2017-10-15T02:55:22.106Z,17.10
2017-10-15T02:55:54.620Z,19.92
2017-10-15T02:56:27.151Z,22.85
2017-10-15T02:56:59.677Z,17.42
2017-10-15T02:57:32.990Z,21.77
2017-10-15T02:58:05.518Z,18.75
2017-10-15T02:58:38.051Z,20.83
2017-10-15T02:59:10.609Z,19.17
2017-10-15T02:59:43.141Z,24.45
2017-10-15T03:00:15.678Z,18.10
2017-10-15T03:00:48.992Z,18.92
2017-10-15T03:01:21.522Z,20.62
2017-10-15T03:01:54.835Z,20.10
2017-10-15T03:02:27.361Z,19.87
2017-10-15T03:03:00.413Z,20.98
2017-10-15T03:03:33.974Z,19.83
2017-10-15T03:04:07.284Z,20.33
2017-10-15T03:04:39.837Z,20.67
2017-10-15T03:05:12.384Z,17.27
2017-10-15T03:05:44.924Z,19.00
2017-10-15T03:06:17.477Z,18.98
2017-10-15T03:06:50.030Z,18.55
2017-10-15T03:21:24.763Z,18.40
2017-10-15T03:37:52.846Z,19.73
2017-10-15T03:38:25.392Z,18.77
2017-10-15T03:38:57.951Z,23.08
2017-10-15T03:39:30.483Z,20.62
2017-10-15T03:40:03.026Z,21.10
2017-10-15T03:40:35.593Z,19.50
2017-10-15T03:41:08.192Z,22.27
2017-10-15T03:41:41.600Z,20.02
2017-10-15T03:42:14.900Z,23.42
2017-10-15T03:42:47.432Z,19.55
2017-10-15T03:43:19.998Z,21.00
2017-10-15T03:43:52.531Z,19.95
2017-10-15T03:44:25.066Z,22.90
2017-10-15T03:44:57.626Z,25.75
2017-10-15T03:45:30.167Z,19.30
2017-10-15T03:46:03.459Z,19.67
2017-10-15T03:46:36.018Z,18.67
2017-10-15T03:47:08.561Z,17.20
2017-10-15T03:47:41.088Z,18.77
2017-10-15T03:48:13.644Z,19.73
2017-10-15T03:48:46.188Z,18.52
2017-10-15T03:49:18.730Z,19.05
2017-10-15T03:49:52.017Z,21.83
2017-10-15T03:50:24.550Z,20.40
2017-10-15T03:50:57.091Z,18.83
2017-10-15T03:51:29.625Z,19.05
2017-10-15T03:52:02.168Z,18.15
2017-10-15T03:52:35.465Z,17.83
2017-10-15T03:53:08.038Z,18.98
2017-10-15T03:53:40.576Z,20.62
2017-10-15T03:54:13.118Z,21.77
2017-10-15T03:54:45.654Z,21.02
2017-10-15T03:55:18.199Z,19.85
2017-10-15T03:55:50.733Z,19.23
2017-10-15T03:56:23.261Z,20.67
2017-10-15T03:56:55.810Z,20.77
2017-10-15T03:57:29.264Z,18.52
2017-10-15T03:58:01.804Z,16.90
2017-10-15T03:58:34.418Z,17.75
2017-10-15T03:59:07.730Z,17.55
2017-10-15T03:59:40.276Z,20.85
2017-10-15T04:00:12.822Z,16.77
2017-10-15T04:00:45.367Z,19.62
2017-10-15T04:01:19.699Z,16.77
2017-10-15T04:01:52.233Z,20.62
2017-10-15T04:02:24.782Z,16.35
2017-10-15T04:02:57.337Z,20.58
2017-10-15T04:03:29.906Z,20.30
2017-10-15T04:04:25.424Z,17.02
2017-10-15T04:04:57.959Z,19.55
2017-10-15T04:05:30.526Z,17.48
2017-10-15T04:06:03.124Z,21.40
2017-10-15T04:06:35.727Z,16.62
2017-10-15T04:07:09.024Z,19.50
2017-10-15T04:07:41.547Z,17.75
2017-10-15T04:08:14.075Z,17.87
2017-10-15T04:08:46.636Z,17.48
2017-10-15T04:09:19.181Z,16.95
2017-10-15T04:09:51.710Z,21.83
2017-10-15T04:10:25.035Z,16.87
2017-10-15T04:10:58.332Z,16.10
2017-10-15T04:11:30.884Z,18.83
2017-10-15T04:12:03.436Z,21.58
2017-10-15T04:12:36.030Z,19.95
2017-10-15T04:13:08.565Z,19.90
2017-10-15T04:13:41.875Z,20.45
2017-10-15T04:14:14.413Z,19.25
2017-10-15T04:14:46.947Z,18.37
2017-10-15T04:15:19.461Z,20.62
2017-10-15T04:15:51.978Z,19.02
2017-10-15T04:16:25.330Z,20.15
2017-10-15T04:16:57.887Z,16.52
2017-10-15T04:17:30.417Z,16.90
2017-10-15T04:18:02.963Z,20.33
2017-10-15T04:18:35.484Z,20.98
2017-10-15T04:19:08.040Z,16.25
2017-10-15T04:19:40.571Z,16.65
2017-10-15T04:20:13.884Z,17.83
2017-10-15T04:20:46.430Z,17.73
2017-10-15T04:21:18.999Z,20.42
2017-10-15T04:21:51.857Z,20.52
2017-10-15T04:22:25.037Z,16.83
2017-10-15T04:22:57.580Z,21.80
2017-10-15T04:23:30.117Z,18.17
2017-10-15T04:24:02.654Z,17.10
2017-10-15T04:24:35.228Z,15.82
2017-10-15T04:25:09.989Z,17.80
2017-10-15T04:25:42.516Z,23.00
2017-10-15T04:26:15.041Z,22.58
2017-10-15T04:26:48.292Z,17.52
2017-10-15T04:27:20.852Z,18.58
2017-10-15T04:27:53.404Z,25.90
2017-10-15T04:28:25.984Z,20.62
2017-10-15T04:28:58.534Z,17.30
2017-10-15T04:29:31.074Z,19.20
2017-10-15T04:30:03.625Z,19.45
2017-10-15T04:30:36.144Z,18.73
2017-10-15T04:31:08.712Z,16.50
2017-10-15T04:31:42.743Z,21.05
2017-10-15T04:32:15.342Z,20.30
2017-10-15T04:32:47.907Z,20.95
2017-10-15T04:33:20.440Z,21.42
2017-10-15T04:33:52.973Z,21.35
2017-10-15T04:34:29.096Z,18.55
2017-10-15T04:35:01.643Z,24.70
2017-10-15T04:35:35.219Z,19.65
2017-10-15T04:36:17.956Z,21.20
2017-10-15T04:37:50.678Z,22.30
2017-10-15T04:38:28.035Z,19.02
2017-10-15T04:39:01.073Z,17.73
2017-10-15T04:39:40.194Z,20.25
2017-10-15T04:40:12.709Z,20.62
2017-10-15T04:40:45.255Z,20.40
2017-10-15T04:41:19.888Z,18.98
2017-10-15T04:41:53.157Z,24.87
2017-10-15T04:52:05.737Z,17.30
2017-10-15T04:52:38.307Z,18.15
2017-10-15T04:53:10.837Z,18.50
2017-10-15T04:53:44.149Z,14.85
2017-10-15T04:54:16.756Z,19.70
2017-10-15T04:54:49.290Z,17.35
2017-10-15T04:55:21.827Z,20.75
2017-10-15T04:55:54.363Z,21.45
2017-10-15T04:56:26.902Z,17.73
2017-10-15T04:58:02.218Z,17.50
2017-10-15T04:58:34.777Z,17.10
2017-10-15T04:59:07.334Z,19.52
2017-10-15T04:59:39.885Z,20.08
2017-10-15T05:00:12.436Z,20.55
2017-10-15T05:00:44.966Z,18.65
2017-10-15T05:01:22.072Z,22.60
2017-10-15T05:01:54.664Z,19.48
2017-10-15T05:02:28.011Z,18.35
2017-10-15T05:03:00.554Z,18.42
2017-10-15T05:03:33.745Z,16.67
2017-10-15T05:04:06.279Z,17.48
2017-10-15T05:04:38.813Z,21.15
2017-10-15T05:05:11.382Z,17.05
2017-10-15T05:05:43.923Z,22.75
2017-10-15T05:06:16.469Z,18.35
2017-10-15T05:06:48.996Z,18.77
2017-10-15T05:07:22.510Z,22.15
2017-10-15T05:07:55.944Z,18.12
2017-10-15T05:08:28.465Z,16.95
2017-10-15T05:09:01.839Z,17.33
2017-10-15T05:09:34.373Z,17.65
2017-10-15T05:10:06.918Z,21.23
2017-10-15T05:10:39.482Z,16.62
2017-10-15T05:11:12.036Z,17.73
2017-10-15T05:11:47.620Z,17.05
2017-10-15T05:12:20.153Z,19.95
2017-10-15T05:12:52.695Z,17.83
2017-10-15T05:13:25.224Z,19.70
2017-10-15T05:13:58.532Z,17.23
2017-10-15T05:14:31.095Z,18.00
2017-10-15T05:15:03.679Z,17.08
2017-10-15T05:15:36.216Z,16.37
2017-10-15T05:16:08.864Z,20.42
2017-10-15T05:16:41.383Z,15.88
2017-10-15T05:17:14.683Z,17.35
2017-10-15T05:17:47.215Z,18.02
2017-10-15T05:18:19.758Z,17.35
2017-10-15T05:18:52.289Z,17.77
2017-10-15T05:19:24.836Z,17.52
2017-10-15T05:19:57.374Z,18.62
2017-10-15T05:20:29.934Z,15.52
2017-10-15T05:21:02.496Z,15.23
2017-10-15T05:21:35.040Z,18.62
2017-10-15T05:22:07.586Z,17.60
2017-10-15T05:22:40.287Z,16.92
2017-10-15T05:23:12.834Z,15.68
2017-10-15T05:23:45.366Z,17.37
2017-10-15T05:24:17.907Z,15.88
2017-10-15T05:24:50.439Z,18.17
2017-10-15T05:25:22.993Z,17.17
2017-10-15T05:25:55.522Z,18.33
2017-10-15T05:26:28.062Z,16.05
2017-10-15T05:27:00.603Z,15.68
2017-10-15T05:27:33.149Z,17.87
2017-10-15T05:28:05.679Z,16.42
2017-10-15T05:28:38.989Z,18.70
2017-10-15T05:29:11.550Z,19.10
2017-10-15T05:29:44.107Z,16.67
2017-10-15T05:30:16.674Z,17.15
2017-10-15T05:30:49.253Z,17.37
2017-10-15T05:31:21.786Z,17.52
2017-10-15T05:31:55.073Z,21.55
2017-10-15T05:32:27.615Z,15.93
2017-10-15T05:33:00.170Z,17.52
2017-10-15T05:33:32.709Z,15.38
2017-10-15T05:34:05.282Z,19.45
2017-10-15T05:34:37.845Z,16.52
2017-10-15T05:35:10.404Z,18.77
2017-10-15T05:35:42.952Z,17.65
2017-10-15T05:36:15.539Z,16.30
2017-10-15T05:36:48.059Z,15.32
2017-10-15T05:37:20.600Z,16.70
2017-10-15T05:37:53.167Z,15.35
2017-10-15T05:38:25.736Z,15.00
2017-10-15T05:38:58.305Z,17.55
2017-10-15T05:39:30.840Z,16.08
2017-10-15T05:40:03.386Z,16.70
2017-10-15T05:40:35.899Z,18.58
2017-10-15T05:41:08.436Z,19.65
2017-10-15T05:41:40.983Z,17.37
2017-10-15T05:42:13.508Z,17.40
2017-10-15T05:42:46.057Z,17.05
2017-10-15T05:43:18.599Z,17.00
2017-10-15T05:43:51.120Z,19.20
2017-10-15T05:44:24.419Z,20.90
2017-10-15T05:44:57.022Z,15.35
2017-10-15T05:45:30.306Z,21.27
2017-10-15T05:46:02.860Z,18.23
2017-10-15T05:46:35.467Z,19.65
2017-10-15T05:47:08.035Z,17.08
2017-10-15T05:47:40.590Z,16.98
2017-10-15T05:48:13.125Z,15.10
2017-10-15T05:48:45.663Z,17.37
2017-10-15T05:49:18.207Z,20.37
2017-10-15T05:49:50.745Z,21.17
2017-10-15T05:50:23.288Z,16.02
2017-10-15T05:50:55.819Z,17.65
2017-10-15T05:51:28.347Z,17.05
2017-10-15T05:52:00.875Z,21.40
2017-10-15T05:52:33.423Z,22.95
2017-10-15T05:53:05.972Z,18.35
2017-10-15T05:53:38.523Z,17.87
2017-10-15T05:54:11.058Z,21.58
2017-10-15T05:54:43.593Z,20.92
2017-10-15T05:55:16.123Z,24.50
2017-10-15T05:55:48.659Z,18.50
2017-10-15T05:56:21.202Z,16.85
2017-10-15T05:56:53.762Z,16.52
2017-10-15T05:57:26.291Z,18.10
2017-10-15T05:57:59.591Z,17.90
2017-10-15T05:58:32.122Z,16.87
2017-10-15T05:59:04.679Z,17.35
2017-10-15T05:59:37.212Z,19.35
2017-10-15T06:00:10.668Z,22.20
2017-10-15T06:00:43.219Z,19.33
2017-10-15T06:01:15.752Z,21.58
2017-10-15T06:01:48.333Z,18.65
2017-10-15T06:02:21.626Z,18.55
2017-10-15T06:02:54.927Z,17.60
2017-10-15T06:03:30.060Z,19.83
2017-10-15T06:04:06.969Z,20.25
2017-10-15T06:04:39.589Z,20.00
2017-10-15T06:05:14.093Z,20.92
2017-10-15T06:05:46.656Z,19.02
2017-10-15T06:06:19.874Z,21.98
2017-10-15T06:06:55.332Z,22.35
2017-10-15T06:12:04.314Z,25.35
2017-10-15T06:12:36.848Z,17.15
2017-10-15T06:13:10.148Z,25.10
2017-10-15T06:13:44.120Z,19.73
2017-10-15T06:14:16.677Z,16.62
2017-10-15T06:14:49.997Z,17.30
2017-10-15T06:30:48.053Z,21.33
2017-10-15T06:42:23.125Z,23.05
2017-10-15T06:42:56.435Z,18.67
2017-10-15T06:43:30.522Z,16.85
2017-10-15T06:44:03.981Z,19.90
2017-10-15T06:44:36.516Z,20.65
2017-10-15T06:45:09.059Z,18.67
2017-10-15T06:45:41.579Z,23.58
2017-10-15T06:46:14.179Z,20.50
2017-10-15T06:46:46.909Z,23.85
2017-10-15T06:47:20.071Z,20.15
2017-10-15T06:47:52.613Z,27.33
2017-10-15T06:48:25.160Z,24.52
2017-10-15T06:48:58.467Z,24.23
2017-10-15T06:49:30.985Z,25.98
2017-10-15T06:50:03.506Z,25.48
2017-10-15T06:50:41.564Z,28.60
2017-10-15T06:51:14.137Z,24.50
2017-10-15T06:51:46.688Z,22.65
2017-10-15T06:52:20.006Z,20.60
2017-10-15T06:52:52.588Z,22.80
2017-10-15T06:53:31.591Z,24.27
2017-10-15T06:56:36.293Z,21.20
2017-10-15T06:59:08.834Z,21.05
2017-10-15T06:59:41.460Z,18.73
2017-10-15T07:00:14.599Z,24.37
2017-10-15T07:00:47.218Z,23.00
2017-10-15T07:01:19.892Z,19.55
2017-10-15T07:01:55.427Z,24.50
2017-10-15T07:02:29.772Z,20.83
2017-10-15T07:03:02.348Z,20.58
2017-10-15T07:03:34.948Z,21.27
2017-10-15T07:04:07.569Z,20.08
2017-10-15T07:04:41.928Z,22.77
2017-10-15T07:05:15.703Z,20.80
2017-10-15T07:05:48.335Z,19.45
2017-10-15T07:06:20.931Z,17.85
2017-10-15T07:06:54.854Z,19.87
2017-10-15T07:07:27.753Z,18.75
2017-10-15T07:08:00.503Z,23.08
2017-10-15T07:08:37.985Z,21.20
2017-10-15T07:09:14.909Z,18.77
2017-10-15T07:19:27.519Z,19.85
2017-10-15T07:20:00.040Z,23.75
2017-10-15T07:20:32.572Z,22.92
2017-10-15T07:21:05.880Z,23.75
2017-10-15T07:21:38.404Z,21.23
2017-10-15T07:22:10.937Z,24.42
2017-10-15T07:22:43.471Z,23.12
2017-10-15T07:23:16.007Z,23.10
2017-10-15T07:23:49.324Z,18.98
2017-10-15T07:24:21.862Z,20.95
2017-10-15T07:24:54.445Z,18.30
2017-10-15T07:25:26.988Z,22.85
2017-10-15T07:25:59.616Z,18.65
2017-10-15T07:26:32.136Z,20.23
2017-10-15T07:27:04.684Z,26.65
2017-10-15T07:27:37.279Z,19.50
2017-10-15T07:28:09.810Z,18.67
2017-10-15T07:28:42.395Z,20.45
2017-10-15T07:29:14.936Z,20.20
2017-10-15T07:29:47.458Z,18.05
2017-10-15T07:30:20.078Z,23.30
2017-10-15T07:30:52.642Z,23.38
2017-10-15T07:31:25.247Z,18.98
2017-10-15T07:31:57.794Z,19.58
2017-10-15T07:32:30.339Z,20.88
2017-10-15T07:33:02.889Z,21.33
2017-10-15T07:33:35.494Z,22.25
2017-10-15T07:34:08.077Z,24.52
2017-10-15T07:34:40.612Z,20.23
2017-10-15T07:35:13.156Z,17.75
2017-10-15T07:35:46.350Z,21.50
2017-10-15T07:36:18.892Z,23.33
2017-10-15T07:36:51.486Z,19.60
2017-10-15T07:37:24.035Z,17.98
2017-10-15T07:37:56.820Z,22.45
2017-10-15T07:38:29.451Z,18.33
2017-10-15T07:39:02.025Z,17.12
2017-10-15T07:39:34.561Z,17.35
2017-10-15T07:40:07.086Z,21.40
2017-10-15T07:40:39.726Z,18.02
2017-10-15T07:41:12.509Z,22.13
2017-10-15T07:41:45.534Z,22.85
2017-10-15T07:42:18.381Z,20.45
2017-10-15T07:42:51.336Z,18.62
2017-10-15T07:43:24.295Z,20.20
2017-10-15T07:43:57.029Z,19.73
2017-10-15T07:44:30.994Z,21.12
2017-10-15T07:45:04.282Z,25.20
2017-10-15T07:45:37.532Z,23.02
2017-10-15T07:46:10.616Z,20.05
2017-10-15T07:46:44.068Z,22.05
2017-10-15T07:47:17.313Z,19.60
2017-10-15T07:47:50.239Z,20.48
2017-10-15T07:48:23.239Z,22.45
2017-10-15T07:48:57.049Z,19.50
2017-10-15T07:49:29.871Z,19.37
2017-10-15T07:50:03.266Z,22.10
2017-10-15T07:50:36.298Z,18.98
2017-10-15T07:51:09.395Z,18.70
2017-10-15T07:51:42.971Z,19.85
2017-10-15T07:52:16.406Z,20.10
2017-10-15T07:52:49.780Z,19.75
2017-10-15T07:53:22.584Z,22.80
2017-10-15T07:53:55.842Z,21.00
2017-10-15T07:54:28.927Z,20.75
2017-10-15T07:55:01.984Z,23.90
2017-10-15T07:55:34.611Z,19.50
2017-10-15T07:56:07.431Z,19.12
2017-10-15T07:56:40.362Z,22.25
2017-10-15T07:57:13.218Z,17.92
2017-10-15T07:57:46.179Z,23.23
2017-10-15T07:58:19.047Z,20.15
2017-10-15T07:58:52.721Z,21.83
2017-10-15T07:59:25.692Z,21.40
2017-10-15T07:59:58.854Z,20.05
2017-10-15T08:00:32.045Z,21.73
2017-10-15T08:01:05.207Z,29.27
2017-10-15T08:01:38.222Z,20.60
2017-10-15T08:02:11.523Z,17.62
2017-10-15T08:02:45.347Z,22.13
2017-10-15T08:03:18.157Z,20.27
2017-10-15T08:03:51.747Z,19.70
2017-10-15T08:04:25.222Z,18.62
2017-10-15T08:04:58.118Z,20.02
2017-10-15T08:05:32.587Z,19.67
2017-10-15T08:06:05.680Z,18.62
2017-10-15T08:06:38.777Z,19.00
2017-10-15T08:07:11.678Z,20.70
2017-10-15T08:07:44.823Z,17.37
2017-10-15T08:08:17.573Z,21.05
2017-10-15T08:08:50.756Z,19.12
2017-10-15T08:09:24.278Z,20.70
2017-10-15T08:09:57.608Z,17.75
2017-10-15T08:10:30.360Z,18.17
2017-10-15T08:11:03.530Z,21.73
2017-10-15T08:11:36.494Z,20.67
2017-10-15T08:12:11.006Z,19.85
2017-10-15T08:12:44.039Z,22.40
2017-10-15T08:13:17.056Z,20.02
2017-10-15T08:13:50.075Z,21.08
2017-10-15T08:14:23.444Z,20.23
2017-10-15T08:14:56.291Z,18.58
2017-10-15T08:15:29.349Z,19.10
2017-10-15T08:16:02.436Z,18.83
2017-10-15T08:16:35.165Z,19.02
2017-10-15T08:17:08.210Z,17.83
2017-10-15T08:17:41.115Z,24.40
2017-10-15T08:18:15.071Z,17.23
2017-10-15T08:18:48.037Z,17.92
2017-10-15T08:19:21.407Z,20.45
2017-10-15T08:19:55.220Z,17.77
2017-10-15T08:20:29.821Z,20.83
2017-10-15T08:21:02.890Z,23.73
2017-10-15T08:21:36.321Z,446.37
2017-10-15T08:22:09.466Z,468.87
2017-10-15T08:22:44.235Z,455.40
2017-10-15T08:23:17.122Z,287.12
2017-10-15T08:23:49.915Z,393.33
2017-10-15T08:24:23.055Z,514.10
2017-10-15T08:24:56.238Z,289.00
2017-10-15T08:25:28.941Z,144.80
2017-10-15T08:26:02.039Z,195.93
2017-10-15T08:26:37.299Z,116.35
2017-10-15T08:27:10.718Z,60.95
2017-10-15T08:27:43.802Z,33.95
2017-10-15T08:28:16.936Z,30.90
2017-10-15T08:28:50.580Z,25.58
2017-10-15T08:29:23.567Z,23.20
2017-10-15T08:29:56.697Z,23.23
2017-10-15T08:30:29.798Z,22.90
2017-10-15T08:31:02.659Z,22.67
2017-10-15T08:31:36.335Z,22.15
2017-10-15T08:32:09.322Z,21.40
2017-10-15T08:32:42.256Z,24.33
2017-10-15T08:33:15.316Z,19.65
2017-10-15T08:33:48.317Z,22.23
2017-10-15T08:34:21.512Z,21.52
2017-10-15T08:34:54.735Z,27.15
2017-10-15T08:35:27.718Z,21.58
2017-10-15T08:36:00.693Z,21.90
2017-10-15T08:36:33.687Z,22.17
2017-10-15T08:37:06.505Z,20.00
2017-10-15T08:37:39.861Z,20.35
2017-10-15T08:38:13.618Z,22.85
2017-10-15T08:38:46.147Z,21.45
2017-10-15T08:39:18.876Z,18.85
2017-10-15T08:39:51.422Z,27.65
2017-10-15T08:40:24.780Z,23.27
2017-10-15T08:40:57.342Z,18.27
2017-10-15T08:41:30.074Z,18.40
2017-10-15T08:42:03.535Z,19.52
2017-10-15T08:42:36.693Z,16.60
2017-10-15T08:43:10.465Z,20.80
2017-10-15T08:43:43.523Z,21.77
2017-10-15T08:44:16.406Z,18.45
2017-10-15T08:44:49.341Z,17.73
2017-10-15T08:45:23.910Z,18.95
2017-10-15T08:45:57.701Z,21.33
2017-10-15T08:46:30.969Z,24.50
2017-10-15T08:47:04.265Z,19.35
2017-10-15T08:47:38.445Z,17.27
2017-10-15T08:48:11.532Z,18.62
2017-10-15T08:48:45.135Z,22.77
2017-10-15T08:49:18.440Z,19.70
2017-10-15T08:49:51.494Z,18.62
2017-10-15T08:50:24.660Z,21.92
2017-10-15T08:50:57.366Z,19.30
2017-10-15T08:51:30.422Z,19.30